KDDC/DDC METAR and TAF weather

Enter ICAO airport designator
Station Type Date Time Source
KDDC METAR 2018/07/16 23:52 UTC NOAA

KDDC 162352Z AUTO 10013KT 10SM CLR 31/21 A3004 RMK AO2 LTG DSNT SE AND S SLP140 T03110206 10339 20289 56009


Station Type Date Time Source
KDDC Decoded METAR 2018/07/16 23:52 UTC NOAA

DODGE CITY REGIONAL AIRPORT, KS, United States (KDDC) 37-46N 99-58W 789M
Jul 16, 2018 - 07:52 PM EDT / 2018.07.16 2352 UTC
Wind: from the E (100 degrees) at 15 MPH (13 KT):0
Visibility: 10 mile(s):0
Sky conditions: clear
Weather: Lightning observed
Temperature: 88.0 F (31.1 C)
Dew Point: 69.1 F (20.6 C)
Relative Humidity: 53%
Pressure (altimeter): 30.04 in. Hg (1017 hPa)
Pressure tendency: 0.03 inches (0.9 hPa) lower than three hours ago
ob: KDDC 162352Z AUTO 10013KT 10SM CLR 31/21 A3004 RMK AO2 LTG DSNT SE AND S SLP140 T03110206 10339 20289 56009
cycle: 0

Station Type Date Time Source
KDDC TAF 2018/07/16 18:22 UTC NOAA

TAF KDDC 161720Z 1618/1718 11009KT P6SM FEW050 SCT250
FM162200 12009KT P6SM VCTS SCT090 BKN200CB
FM170600 13005KT P6SM BKN120


Example: see airport list